createdAt,value
2017-07-02T00:02:21.284Z,13.20
2017-07-02T00:04:47.465Z,13.20
2017-07-02T00:07:13.660Z,13.20
2017-07-02T00:09:40.596Z,13.10
2017-07-02T00:12:06.855Z,13.10
2017-07-02T00:14:33.033Z,13.10
2017-07-02T00:16:59.193Z,13.10
2017-07-02T00:19:26.138Z,13.20
2017-07-02T00:21:53.044Z,13.20
2017-07-02T00:24:19.278Z,13.20
2017-07-02T00:26:45.447Z,13.10
2017-07-02T00:29:12.352Z,13.10
2017-07-02T00:31:38.548Z,13.10
2017-07-02T00:34:04.720Z,13.10
2017-07-02T00:36:30.892Z,13.20
2017-07-02T00:38:57.101Z,13.10
2017-07-02T00:41:23.267Z,13.10
2017-07-02T00:43:49.439Z,13.10
2017-07-02T00:46:16.387Z,13.10
2017-07-02T00:48:43.295Z,13.10
2017-07-02T00:51:09.489Z,13.10
2017-07-02T00:53:35.695Z,13.10
2017-07-02T00:56:02.607Z,13.10
2017-07-02T00:58:28.773Z,13.10
2017-07-02T01:00:54.956Z,13.10
2017-07-02T01:03:21.228Z,13.00
2017-07-02T01:05:47.395Z,13.00
2017-07-02T01:08:13.559Z,13.00
2017-07-02T01:10:40.501Z,13.00
2017-07-02T01:13:07.442Z,12.90
2017-07-02T01:15:33.607Z,12.90
2017-07-02T01:17:59.816Z,13.00
2017-07-02T01:20:25.986Z,13.00
2017-07-02T01:22:52.163Z,13.00
2017-07-02T01:25:19.095Z,13.00
2017-07-02T01:27:45.258Z,13.00
2017-07-02T01:30:11.482Z,13.00
2017-07-02T01:32:37.744Z,13.00
2017-07-02T01:35:03.931Z,12.90
2017-07-02T01:37:30.135Z,12.90
2017-07-02T01:39:57.047Z,12.90
2017-07-02T01:42:23.236Z,12.90
2017-07-02T01:44:49.492Z,12.90
2017-07-02T01:47:15.692Z,12.90
2017-07-02T01:49:41.871Z,13.00
2017-07-02T01:52:08.223Z,12.80
2017-07-02T01:54:35.163Z,12.80
2017-07-02T01:57:02.141Z,12.80
2017-07-02T01:59:28.374Z,12.80
2017-07-02T02:02:06.716Z,12.80
2017-07-02T02:04:32.944Z,12.90
2017-07-02T02:06:59.147Z,12.90
2017-07-02T02:09:25.332Z,12.90
2017-07-02T02:11:52.291Z,12.90
2017-07-02T02:14:18.464Z,12.90
2017-07-02T02:16:44.631Z,12.90
2017-07-02T02:19:11.572Z,12.90
2017-07-02T02:21:38.493Z,12.90
2017-07-02T02:24:04.662Z,12.80
2017-07-02T02:26:30.871Z,12.90
2017-07-02T02:28:57.041Z,12.80
2017-07-02T02:31:23.216Z,12.80
2017-07-02T02:33:49.408Z,12.90
2017-07-02T02:36:15.571Z,12.90
2017-07-02T02:38:41.743Z,12.80
2017-07-02T02:41:07.956Z,12.80
2017-07-02T02:43:34.139Z,12.90
2017-07-02T02:46:00.307Z,12.80
2017-07-02T02:48:26.518Z,12.80
2017-07-02T02:50:53.421Z,12.80
2017-07-02T02:53:19.591Z,12.80
2017-07-02T02:55:46.530Z,12.80
2017-07-02T02:58:13.471Z,12.80
2017-07-02T03:00:40.403Z,12.80
2017-07-02T03:03:06.592Z,12.80
2017-07-02T03:05:32.839Z,12.90
2017-07-02T03:07:59.016Z,12.80
2017-07-02T03:10:25.187Z,12.80
2017-07-02T03:12:51.397Z,12.80
2017-07-02T03:15:17.571Z,12.80
2017-07-02T03:17:43.737Z,12.80
2017-07-02T03:20:09.927Z,12.80
2017-07-02T03:22:36.864Z,12.80
2017-07-02T03:25:03.121Z,12.80
2017-07-02T03:27:29.295Z,12.80
2017-07-02T03:29:55.488Z,12.80
2017-07-02T03:32:21.679Z,12.70
2017-07-02T03:34:47.847Z,12.70
2017-07-02T03:37:14.048Z,12.70
2017-07-02T03:39:40.215Z,12.70
2017-07-02T03:42:06.395Z,12.70
2017-07-02T03:44:33.340Z,12.90
2017-07-02T03:47:00.265Z,12.90
2017-07-02T03:49:26.444Z,12.90
2017-07-02T03:51:52.633Z,12.90
2017-07-02T03:54:19.580Z,12.90
2017-07-02T03:56:46.531Z,12.90
2017-07-02T03:59:13.444Z,12.90
2017-07-02T04:01:39.631Z,12.80
2017-07-02T04:04:05.854Z,12.80
2017-07-02T04:06:32.032Z,12.80
2017-07-02T04:08:58.215Z,12.80
2017-07-02T04:11:24.421Z,12.70
2017-07-02T04:13:50.584Z,12.80
2017-07-02T04:16:16.755Z,12.80
2017-07-02T04:18:43.692Z,12.80
2017-07-02T04:21:09.871Z,12.80
2017-07-02T04:23:36.047Z,12.80
2017-07-02T04:26:02.249Z,12.90
2017-07-02T04:28:28.414Z,12.90
2017-07-02T04:30:55.343Z,12.90
2017-07-02T04:33:21.592Z,12.90
2017-07-02T04:35:48.503Z,12.90
2017-07-02T04:38:14.691Z,12.90
2017-07-02T04:40:41.772Z,12.90
2017-07-02T04:43:07.976Z,13.00
2017-07-02T04:45:34.155Z,13.00
2017-07-02T04:48:01.119Z,13.00
2017-07-02T04:50:27.288Z,13.00
2017-07-02T04:52:53.481Z,13.00
2017-07-02T04:55:19.699Z,12.90
2017-07-02T04:57:45.875Z,12.90
2017-07-02T05:00:12.052Z,12.80
2017-07-02T05:02:38.276Z,12.90
2017-07-02T05:05:04.456Z,12.80
2017-07-02T05:07:30.636Z,12.90
2017-07-02T05:09:56.839Z,12.90
2017-07-02T05:12:23.038Z,13.00
2017-07-02T05:14:49.229Z,13.00
2017-07-02T05:17:15.417Z,12.90
2017-07-02T05:19:41.616Z,13.00
2017-07-02T05:22:07.833Z,13.00
2017-07-02T05:24:34.019Z,13.00
2017-07-02T05:27:00.291Z,13.10
2017-07-02T05:29:26.919Z,13.10
2017-07-02T05:31:53.112Z,13.00
2017-07-02T05:34:19.307Z,13.00
2017-07-02T05:36:45.528Z,13.10
2017-07-02T05:39:11.735Z,13.20
2017-07-02T05:41:38.000Z,13.20
2017-07-02T05:44:05.207Z,13.30
2017-07-02T05:46:31.410Z,13.40
2017-07-02T05:48:57.613Z,13.30
2017-07-02T05:51:23.850Z,13.30
2017-07-02T05:53:50.765Z,13.40
2017-07-02T05:56:16.951Z,13.40
2017-07-02T05:58:43.156Z,13.40
2017-07-02T06:01:09.336Z,13.50
2017-07-02T06:03:35.531Z,13.50
2017-07-02T06:06:01.774Z,13.60
2017-07-02T06:08:27.947Z,13.50
2017-07-02T06:10:54.856Z,13.60
2017-07-02T06:13:21.071Z,13.60
2017-07-02T06:15:47.243Z,13.60
2017-07-02T06:18:14.172Z,13.70
2017-07-02T06:20:40.376Z,13.70
2017-07-02T06:23:06.560Z,13.80
2017-07-02T06:25:32.789Z,13.90
2017-07-02T06:27:58.971Z,13.90
2017-07-02T06:30:25.208Z,14.00
2017-07-02T06:32:51.428Z,14.10
2017-07-02T06:35:17.625Z,14.10
2017-07-02T06:37:43.785Z,14.10
2017-07-02T06:40:10.029Z,14.20
2017-07-02T06:42:36.202Z,14.20
2017-07-02T06:45:04.019Z,14.30
2017-07-02T06:47:30.219Z,14.30
2017-07-02T06:49:56.423Z,14.50
2017-07-02T06:52:22.584Z,14.60
2017-07-02T06:54:48.780Z,14.60
2017-07-02T06:57:14.968Z,14.70
2017-07-02T06:59:41.892Z,14.70
2017-07-02T07:02:08.107Z,14.70
2017-07-02T07:04:34.284Z,14.90
2017-07-02T07:07:00.473Z,15.10
2017-07-02T07:09:26.695Z,15.00
2017-07-02T07:11:52.875Z,14.90
2017-07-02T07:14:19.082Z,14.90
2017-07-02T07:16:45.288Z,15.00
2017-07-02T07:19:12.300Z,14.90
2017-07-02T07:21:38.496Z,14.90
2017-07-02T07:24:04.747Z,14.90
2017-07-02T07:26:30.948Z,14.90
2017-07-02T07:28:57.147Z,14.90
2017-07-02T07:31:23.372Z,14.80
2017-07-02T07:33:49.559Z,14.70
2017-07-02T07:36:15.747Z,14.70
2017-07-02T07:38:42.024Z,14.50
2017-07-02T07:41:08.321Z,14.60
2017-07-02T07:43:34.508Z,14.50
2017-07-02T07:46:00.705Z,14.60
2017-07-02T07:48:26.879Z,14.70
2017-07-02T07:50:53.863Z,14.60
2017-07-02T07:53:20.081Z,14.60
2017-07-02T07:55:46.292Z,14.50
2017-07-02T07:58:12.563Z,14.50
2017-07-02T08:00:38.771Z,14.50
2017-07-02T08:03:04.952Z,14.50
2017-07-02T08:05:31.173Z,14.50
2017-07-02T08:07:57.359Z,14.50
2017-07-02T08:10:23.538Z,14.60
2017-07-02T08:12:50.546Z,14.70
2017-07-02T08:15:16.745Z,14.70
2017-07-02T08:17:42.926Z,14.60
2017-07-02T08:20:09.142Z,14.60
2017-07-02T08:22:35.317Z,14.80
2017-07-02T08:25:01.497Z,14.90
2017-07-02T08:27:27.712Z,15.00
2017-07-02T08:29:53.912Z,15.10
2017-07-02T08:32:20.091Z,15.20
2017-07-02T08:34:46.305Z,15.00
2017-07-02T08:37:12.480Z,15.00
2017-07-02T08:39:38.657Z,15.00
2017-07-02T08:42:04.854Z,14.80
2017-07-02T08:44:31.060Z,14.90
2017-07-02T08:46:57.300Z,15.00
2017-07-02T08:49:23.484Z,14.90
2017-07-02T08:51:50.404Z,15.10
2017-07-02T08:54:16.620Z,15.10
2017-07-02T08:56:42.821Z,15.20
2017-07-02T08:59:09.004Z,15.30
2017-07-02T09:01:35.958Z,15.60
2017-07-02T09:04:02.880Z,15.70
2017-07-02T09:06:29.121Z,15.60
2017-07-02T09:08:55.304Z,15.80
2017-07-02T09:11:21.505Z,15.80
2017-07-02T09:13:47.728Z,15.90
2017-07-02T09:16:14.678Z,16.30
2017-07-02T09:18:40.869Z,16.30
2017-07-02T09:21:07.095Z,16.40
2017-07-02T09:23:33.277Z,16.50
2017-07-02T09:25:59.494Z,16.60
2017-07-02T09:28:25.747Z,16.70
2017-07-02T09:30:51.925Z,16.90
2017-07-02T09:33:18.133Z,17.10
2017-07-02T09:35:44.328Z,17.20
2017-07-02T09:38:10.528Z,17.30
2017-07-02T09:40:36.752Z,17.50
2017-07-02T09:43:02.944Z,17.60
2017-07-02T09:45:29.120Z,17.70
2017-07-02T09:47:55.328Z,17.60
2017-07-02T09:50:22.276Z,17.30
2017-07-02T09:52:48.503Z,17.30
2017-07-02T09:55:14.719Z,17.10
2017-07-02T09:57:41.649Z,16.80
2017-07-02T10:00:07.864Z,16.80
2017-07-02T10:02:34.116Z,16.90
2017-07-02T10:05:01.056Z,17.10
2017-07-02T10:07:27.307Z,17.10
2017-07-02T10:09:53.508Z,17.40
2017-07-02T10:12:20.452Z,17.30
2017-07-02T10:14:47.407Z,17.30
2017-07-02T10:17:14.346Z,17.20
2017-07-02T10:19:40.540Z,17.20
2017-07-02T10:22:06.851Z,17.20
2017-07-02T10:24:33.055Z,17.00
2017-07-02T10:26:59.255Z,16.90
2017-07-02T10:29:26.255Z,16.50
2017-07-02T10:31:52.456Z,16.50
2017-07-02T10:34:18.636Z,16.50
2017-07-02T10:36:44.861Z,16.40
2017-07-02T10:39:11.053Z,16.40
2017-07-02T10:41:37.255Z,16.40
2017-07-02T10:44:03.482Z,16.50
2017-07-02T10:46:29.680Z,16.50
2017-07-02T10:48:55.864Z,16.60
2017-07-02T10:51:22.068Z,16.60
2017-07-02T10:53:48.273Z,16.80
2017-07-02T10:56:14.492Z,16.90
2017-07-02T10:58:40.687Z,17.00
2017-07-02T11:01:06.864Z,17.40
2017-07-02T11:03:33.864Z,17.90
2017-07-02T11:06:00.035Z,17.80
2017-07-02T11:08:27.089Z,18.30
2017-07-02T11:10:54.064Z,18.50
2017-07-02T11:13:20.241Z,18.50
2017-07-02T11:15:46.431Z,18.50
2017-07-02T11:18:12.644Z,18.50
2017-07-02T11:20:38.836Z,18.50
2017-07-02T11:23:05.097Z,18.60
2017-07-02T11:25:31.300Z,18.60
2017-07-02T11:27:57.497Z,18.30
2017-07-02T11:30:23.713Z,18.30
2017-07-02T11:32:49.933Z,18.10
2017-07-02T11:35:16.132Z,18.40
2017-07-02T11:37:42.483Z,18.40
2017-07-02T11:40:08.673Z,18.60
2017-07-02T11:42:34.897Z,18.40
2017-07-02T11:45:01.116Z,18.10
2017-07-02T11:47:27.329Z,18.20
2017-07-02T11:49:53.532Z,18.30
2017-07-02T11:52:19.752Z,18.40
2017-07-02T11:54:45.955Z,18.10
2017-07-02T11:57:12.173Z,18.00
2017-07-02T11:59:38.404Z,18.10
2017-07-02T12:02:04.603Z,18.10
2017-07-02T12:04:30.778Z,18.20
2017-07-02T12:06:56.995Z,18.50
2017-07-02T12:09:23.216Z,18.60
2017-07-02T12:11:49.409Z,18.90
2017-07-02T12:14:15.624Z,18.90
2017-07-02T12:16:41.896Z,18.90
2017-07-02T12:19:08.077Z,19.20
2017-07-02T12:21:34.299Z,19.40
2017-07-02T12:24:00.632Z,19.70
2017-07-02T12:26:26.853Z,19.80
2017-07-02T12:28:53.091Z,19.60
2017-07-02T12:31:19.323Z,19.60
2017-07-02T12:33:45.563Z,19.50
2017-07-02T12:36:12.572Z,19.70
2017-07-02T12:38:38.799Z,19.70
2017-07-02T12:41:05.015Z,19.70
2017-07-02T12:43:31.251Z,19.50
2017-07-02T12:45:57.477Z,19.40
2017-07-02T12:48:23.689Z,19.50
2017-07-02T12:50:49.932Z,19.90
2017-07-02T12:53:16.404Z,20.40
2017-07-02T12:55:42.683Z,20.50
2017-07-02T12:58:08.908Z,20.30
2017-07-02T13:00:35.100Z,20.40
2017-07-02T13:03:02.071Z,20.40
2017-07-02T13:05:28.285Z,20.40
2017-07-02T13:07:54.469Z,20.50
2017-07-02T13:10:20.679Z,20.60
2017-07-02T13:12:46.867Z,20.40
2017-07-02T13:15:13.054Z,20.60
2017-07-02T13:17:39.270Z,20.20
2017-07-02T13:20:05.443Z,20.40
2017-07-02T13:22:32.423Z,20.20
2017-07-02T13:24:58.607Z,20.20
2017-07-02T13:27:24.796Z,20.00
2017-07-02T13:29:51.027Z,19.90
2017-07-02T13:32:17.222Z,19.80
2017-07-02T13:34:43.407Z,19.50
2017-07-02T13:37:10.380Z,19.30
2017-07-02T13:39:36.575Z,19.30
2017-07-02T13:42:02.767Z,19.10
2017-07-02T13:44:28.969Z,19.10
2017-07-02T13:46:55.163Z,19.30
2017-07-02T13:49:22.136Z,19.30
2017-07-02T13:51:48.348Z,19.20
2017-07-02T13:54:15.277Z,19.30
2017-07-02T13:56:41.513Z,19.20
2017-07-02T13:59:07.686Z,19.30
2017-07-02T14:01:33.872Z,19.20
2017-07-02T14:04:00.063Z,19.30
2017-07-02T14:06:26.233Z,19.10
2017-07-02T14:08:53.145Z,19.00
2017-07-02T14:11:19.374Z,19.00
2017-07-02T14:13:45.560Z,18.80
2017-07-02T14:16:11.743Z,18.50
2017-07-02T14:18:38.100Z,18.50
2017-07-02T14:21:04.282Z,18.40
2017-07-02T14:23:30.460Z,18.20
2017-07-02T14:25:56.688Z,18.10
2017-07-02T14:28:22.880Z,18.20
2017-07-02T14:30:49.837Z,18.00
2017-07-02T14:33:16.789Z,17.80
2017-07-02T14:35:42.980Z,17.80
2017-07-02T14:38:09.145Z,17.60
2017-07-02T14:40:35.372Z,17.50
2017-07-02T14:43:01.540Z,17.50
2017-07-02T14:45:27.728Z,17.50
2017-07-02T14:47:53.967Z,17.30
2017-07-02T14:50:20.148Z,17.30
2017-07-02T14:52:46.376Z,17.50
2017-07-02T14:55:12.559Z,17.50
2017-07-02T14:57:38.792Z,17.50
2017-07-02T15:00:05.016Z,17.70
2017-07-02T15:02:31.200Z,17.60
2017-07-02T15:04:58.123Z,17.60
2017-07-02T15:07:24.417Z,17.60
2017-07-02T15:09:50.586Z,17.40
2017-07-02T15:12:16.752Z,17.40
2017-07-02T15:14:42.972Z,17.30
2017-07-02T15:17:09.204Z,17.20
2017-07-02T15:19:35.425Z,17.20
2017-07-02T15:22:01.659Z,17.10
2017-07-02T15:24:27.865Z,17.00
2017-07-02T15:26:54.787Z,16.90
2017-07-02T15:29:20.999Z,16.80
2017-07-02T15:31:48.951Z,16.80
2017-07-02T15:34:15.930Z,16.80
2017-07-02T15:36:42.361Z,16.70
2017-07-02T15:39:09.518Z,16.70
2017-07-02T15:41:35.725Z,16.80
2017-07-02T15:44:01.957Z,16.70
2017-07-02T15:46:28.218Z,16.70
2017-07-02T15:48:55.141Z,16.80
2017-07-02T15:51:21.327Z,16.80
2017-07-02T15:53:47.559Z,16.90
2017-07-02T15:56:13.730Z,17.00
2017-07-02T15:58:39.953Z,16.90
2017-07-02T16:01:06.176Z,17.00
2017-07-02T16:03:32.361Z,17.00
2017-07-02T16:05:58.545Z,17.00
2017-07-02T16:08:24.751Z,16.80
2017-07-02T16:10:50.932Z,16.70
2017-07-02T16:13:17.142Z,16.60
2017-07-02T16:15:43.370Z,16.40
2017-07-02T16:18:09.552Z,16.50
2017-07-02T16:20:35.746Z,16.50
2017-07-02T16:23:01.966Z,16.50
2017-07-02T16:25:28.153Z,16.50
2017-07-02T16:27:54.381Z,16.50
2017-07-02T16:30:20.600Z,16.40
2017-07-02T16:32:46.805Z,16.30
2017-07-02T16:35:12.992Z,16.30
2017-07-02T16:37:39.216Z,16.30
2017-07-02T16:40:05.388Z,16.40
2017-07-02T16:42:31.629Z,16.40
2017-07-02T16:44:57.801Z,16.40
2017-07-02T16:47:23.995Z,16.30
2017-07-02T16:49:50.221Z,16.30
2017-07-02T16:52:16.420Z,16.30
2017-07-02T16:54:42.629Z,16.30
2017-07-02T16:57:08.856Z,16.30
2017-07-02T16:59:35.047Z,16.30
2017-07-02T17:02:01.975Z,16.30
2017-07-02T17:04:28.212Z,16.30
2017-07-02T17:06:54.416Z,16.40
2017-07-02T17:09:20.642Z,16.40
2017-07-02T17:11:46.873Z,16.40
2017-07-02T17:14:13.083Z,16.40
2017-07-02T17:16:39.308Z,16.40
2017-07-02T17:19:05.495Z,16.40
2017-07-02T17:21:31.689Z,16.50
2017-07-02T17:23:57.940Z,16.50
2017-07-02T17:26:24.902Z,16.40
2017-07-02T17:28:51.331Z,16.40
2017-07-02T17:31:17.584Z,16.30
2017-07-02T17:33:43.792Z,16.30
2017-07-02T17:36:09.985Z,16.30
2017-07-02T17:38:36.243Z,16.20
2017-07-02T17:41:03.187Z,16.10
2017-07-02T17:43:30.127Z,16.20
2017-07-02T17:45:57.070Z,16.10
2017-07-02T17:48:24.010Z,16.10
2017-07-02T17:50:50.941Z,16.10
2017-07-02T17:53:17.177Z,16.10
2017-07-02T17:55:43.377Z,16.10
2017-07-02T17:58:09.562Z,16.00
2017-07-02T18:00:35.793Z,15.90
2017-07-02T18:03:02.014Z,15.80
2017-07-02T18:05:28.201Z,15.80
2017-07-02T18:07:54.399Z,15.70
2017-07-02T18:10:20.636Z,15.70
2017-07-02T18:12:46.846Z,15.70
2017-07-02T18:15:13.177Z,15.70
2017-07-02T18:17:39.467Z,15.50
2017-07-02T18:20:05.641Z,15.40
2017-07-02T18:22:31.874Z,15.30
2017-07-02T18:24:58.066Z,15.30
2017-07-02T18:27:24.285Z,15.30
2017-07-02T18:29:50.467Z,15.30
2017-07-02T18:32:16.704Z,15.20
2017-07-02T18:34:42.940Z,15.20
2017-07-02T18:37:09.227Z,15.10
2017-07-02T18:39:35.444Z,15.10
2017-07-02T18:42:01.670Z,15.20
2017-07-02T18:44:27.857Z,15.20
2017-07-02T18:46:54.800Z,15.10
2017-07-02T18:49:21.043Z,15.10
2017-07-02T18:51:48.023Z,15.00
2017-07-02T18:54:14.213Z,15.00
2017-07-02T18:56:41.179Z,14.90
2017-07-02T18:59:07.355Z,14.90
2017-07-02T19:01:34.297Z,15.00
2017-07-02T19:04:00.533Z,15.00
2017-07-02T19:06:26.752Z,15.00
2017-07-02T19:08:52.968Z,15.00
2017-07-02T19:11:19.191Z,14.90
2017-07-02T19:13:45.451Z,14.80
2017-07-02T19:16:11.673Z,14.70
2017-07-02T19:18:37.905Z,14.80
2017-07-02T19:21:04.151Z,14.80
2017-07-02T19:23:31.123Z,14.80
2017-07-02T19:25:57.328Z,14.80
2017-07-02T19:28:24.379Z,14.80
2017-07-02T19:30:50.601Z,14.80
2017-07-02T19:33:17.524Z,14.80
2017-07-02T19:35:43.746Z,14.80
2017-07-02T19:38:09.951Z,14.80
2017-07-02T19:40:36.135Z,14.80
2017-07-02T19:43:03.144Z,14.80
2017-07-02T19:45:29.413Z,14.80
2017-07-02T19:47:55.609Z,14.80
2017-07-02T19:50:21.816Z,14.70
2017-07-02T19:52:48.147Z,14.70
2017-07-02T19:55:14.360Z,14.60
2017-07-02T19:57:40.590Z,14.60
2017-07-02T20:00:06.779Z,14.60
2017-07-02T20:02:32.961Z,14.60
2017-07-02T20:04:59.192Z,14.60
2017-07-02T20:07:25.367Z,14.70
2017-07-02T20:09:51.535Z,14.70
2017-07-02T20:12:17.729Z,14.70
2017-07-02T20:14:43.929Z,14.70
2017-07-02T20:17:10.151Z,14.70
2017-07-02T20:19:36.333Z,14.70
2017-07-02T20:22:02.516Z,14.80
2017-07-02T20:24:29.521Z,14.70
2017-07-02T20:26:55.700Z,14.70
2017-07-02T20:29:21.900Z,14.70
2017-07-02T20:31:48.110Z,14.70
2017-07-02T20:34:14.294Z,14.70
2017-07-02T20:36:40.529Z,14.70
2017-07-02T20:39:06.718Z,14.60
2017-07-02T20:41:33.685Z,14.60
2017-07-02T20:43:59.931Z,14.60
2017-07-02T20:46:26.108Z,14.60
2017-07-02T20:48:52.288Z,14.60
2017-07-02T20:51:18.508Z,14.60
2017-07-02T20:53:44.948Z,14.60
2017-07-02T20:56:11.130Z,14.60
2017-07-02T20:58:38.076Z,14.50
2017-07-02T21:01:05.050Z,14.60
2017-07-02T21:03:31.224Z,14.50
2017-07-02T21:05:57.421Z,14.40
2017-07-02T21:08:23.633Z,14.40
2017-07-02T21:10:49.823Z,14.50
2017-07-02T21:13:16.003Z,14.50
2017-07-02T21:15:42.240Z,14.60
2017-07-02T21:18:08.432Z,14.50
2017-07-02T21:20:34.624Z,14.50
2017-07-02T21:23:00.849Z,14.40
2017-07-02T21:25:27.028Z,14.40
2017-07-02T21:27:53.208Z,14.30
2017-07-02T21:30:19.451Z,14.40
2017-07-02T21:32:46.369Z,14.50
2017-07-02T21:35:14.015Z,14.50
2017-07-02T21:37:40.223Z,14.50
2017-07-02T21:40:06.398Z,14.50
2017-07-02T21:42:32.572Z,14.40
2017-07-02T21:44:58.792Z,14.30
2017-07-02T21:47:24.963Z,14.20
2017-07-02T21:49:51.131Z,14.20
2017-07-02T21:52:17.335Z,14.30
2017-07-02T21:54:43.517Z,14.20
2017-07-02T21:57:09.700Z,14.20
2017-07-02T21:59:35.917Z,14.10
2017-07-02T22:02:02.854Z,14.20
2017-07-02T22:04:29.047Z,14.20
2017-07-02T22:06:55.277Z,14.20
2017-07-02T22:09:21.483Z,14.20
2017-07-02T22:11:47.652Z,14.20
2017-07-02T22:14:13.892Z,14.20
2017-07-02T22:16:40.067Z,14.20
2017-07-02T22:19:06.243Z,14.20
2017-07-02T22:21:32.507Z,14.10
2017-07-02T22:23:58.676Z,14.10
2017-07-02T22:26:24.884Z,14.00
2017-07-02T22:28:51.416Z,14.10
2017-07-02T22:31:17.594Z,14.00
2017-07-02T22:33:44.704Z,14.10
2017-07-02T22:36:10.871Z,14.10
2017-07-02T22:38:37.808Z,14.10
2017-07-02T22:41:04.036Z,14.10
2017-07-02T22:43:30.259Z,14.10
2017-07-02T22:45:56.429Z,14.10
2017-07-02T22:48:22.613Z,14.10
2017-07-02T22:50:48.853Z,14.10
2017-07-02T22:53:15.813Z,14.10
2017-07-02T22:55:42.783Z,14.10
2017-07-02T22:58:08.968Z,14.10
2017-07-02T23:00:35.140Z,14.00
2017-07-02T23:03:01.343Z,14.00
2017-07-02T23:05:27.509Z,14.00
2017-07-02T23:07:53.689Z,14.00
2017-07-02T23:10:20.649Z,13.90
2017-07-02T23:12:46.829Z,13.90
2017-07-02T23:15:12.996Z,13.80
2017-07-02T23:17:39.224Z,13.80
2017-07-02T23:20:05.388Z,13.80
2017-07-02T23:22:31.559Z,13.90
2017-07-02T23:24:58.499Z,13.90
2017-07-02T23:27:24.665Z,13.80
2017-07-02T23:29:50.843Z,13.80
2017-07-02T23:32:17.053Z,13.80
2017-07-02T23:34:43.230Z,13.80
2017-07-02T23:37:09.417Z,13.80
2017-07-02T23:39:35.624Z,13.90
2017-07-02T23:42:01.814Z,13.80
2017-07-02T23:44:28.002Z,13.80
2017-07-02T23:46:54.205Z,13.80
2017-07-02T23:49:20.428Z,13.80
2017-07-02T23:51:46.610Z,13.80
2017-07-02T23:54:13.521Z,13.80
2017-07-02T23:56:39.732Z,13.80
2017-07-02T23:59:05.917Z,13.90
